sensor_id;sensor_type;location;lat;lon;timestamp;P1;durP1;ratioP1;P2;durP2;ratioP2
59476;SDS011;45713;49.766;6.592;2022-09-14T00:00:17;6.93;;;4.60;;
59476;SDS011;45713;49.766;6.592;2022-09-14T00:02:43;6.60;;;3.83;;
59476;SDS011;45713;49.766;6.592;2022-09-14T00:05:10;8.20;;;4.55;;
59476;SDS011;45713;49.766;6.592;2022-09-14T00:07:36;5.90;;;4.32;;
59476;SDS011;45713;49.766;6.592;2022-09-14T00:10:02;6.00;;;3.88;;
59476;SDS011;45713;49.766;6.592;2022-09-14T00:12:28;5.70;;;3.67;;
59476;SDS011;45713;49.766;6.592;2022-09-14T00:14:54;8.27;;;4.03;;
59476;SDS011;45713;49.766;6.592;2022-09-14T00:17:20;7.05;;;4.03;;
59476;SDS011;45713;49.766;6.592;2022-09-14T00:19:46;5.75;;;3.50;;
59476;SDS011;45713;49.766;6.592;2022-09-14T00:22:12;8.98;;;3.85;;
59476;SDS011;45713;49.766;6.592;2022-09-14T00:24:38;6.63;;;3.50;;
59476;SDS011;45713;49.766;6.592;2022-09-14T00:27:05;6.45;;;4.10;;
59476;SDS011;45713;49.766;6.592;2022-09-14T00:29:31;7.45;;;4.00;;
59476;SDS011;45713;49.766;6.592;2022-09-14T00:31:57;9.18;;;4.10;;
59476;SDS011;45713;49.766;6.592;2022-09-14T00:34:23;8.45;;;4.10;;
59476;SDS011;45713;49.766;6.592;2022-09-14T00:36:50;5.63;;;3.83;;
59476;SDS011;45713;49.766;6.592;2022-09-14T00:39:17;5.85;;;3.70;;
59476;SDS011;45713;49.766;6.592;2022-09-14T00:41:43;5.80;;;3.92;;
59476;SDS011;45713;49.766;6.592;2022-09-14T00:46:36;6.97;;;4.03;;
59476;SDS011;45713;49.766;6.592;2022-09-14T00:49:05;8.60;;;3.67;;
59476;SDS011;45713;49.766;6.592;2022-09-14T00:51:32;5.35;;;3.38;;
59476;SDS011;45713;49.766;6.592;2022-09-14T00:54:02;7.75;;;3.83;;
59476;SDS011;45713;49.766;6.592;2022-09-14T00:56:30;5.03;;;3.25;;
59476;SDS011;45713;49.766;6.592;2022-09-14T00:58:57;6.05;;;3.53;;
59476;SDS011;45713;49.766;6.592;2022-09-14T01:01:24;4.93;;;3.50;;
59476;SDS011;45713;49.766;6.592;2022-09-14T01:03:50;8.57;;;3.72;;
59476;SDS011;45713;49.766;6.592;2022-09-14T01:13:43;9.30;;;4.00;;
59476;SDS011;45713;49.766;6.592;2022-09-14T01:18:45;7.68;;;4.05;;
59476;SDS011;45713;49.766;6.592;2022-09-14T01:21:18;9.30;;;3.88;;
59476;SDS011;45713;49.766;6.592;2022-09-14T01:24:45;7.85;;;4.03;;
59476;SDS011;45713;49.766;6.592;2022-09-14T01:26:47;8.75;;;3.88;;
59476;SDS011;45713;49.766;6.592;2022-09-14T01:31:55;5.10;;;3.63;;
59476;SDS011;45713;49.766;6.592;2022-09-14T01:35:10;5.68;;;3.72;;
59476;SDS011;45713;49.766;6.592;2022-09-14T01:37:16;4.63;;;3.47;;
59476;SDS011;45713;49.766;6.592;2022-09-14T01:39:44;5.25;;;3.67;;
59476;SDS011;45713;49.766;6.592;2022-09-14T01:42:12;4.68;;;3.80;;
59476;SDS011;45713;49.766;6.592;2022-09-14T01:44:41;6.93;;;3.63;;
59476;SDS011;45713;49.766;6.592;2022-09-14T01:47:10;6.30;;;3.70;;
59476;SDS011;45713;49.766;6.592;2022-09-14T01:49:47;7.13;;;4.25;;
59476;SDS011;45713;49.766;6.592;2022-09-14T01:52:20;7.85;;;4.20;;
59476;SDS011;45713;49.766;6.592;2022-09-14T01:54:49;6.60;;;3.72;;
59476;SDS011;45713;49.766;6.592;2022-09-14T01:57:26;5.00;;;3.38;;
59476;SDS011;45713;49.766;6.592;2022-09-14T01:59:55;8.07;;;4.05;;
59476;SDS011;45713;49.766;6.592;2022-09-14T02:02:26;6.40;;;4.00;;
59476;SDS011;45713;49.766;6.592;2022-09-14T02:04:56;6.53;;;3.88;;
59476;SDS011;45713;49.766;6.592;2022-09-14T02:07:24;6.43;;;3.92;;
59476;SDS011;45713;49.766;6.592;2022-09-14T02:09:50;6.53;;;3.92;;
59476;SDS011;45713;49.766;6.592;2022-09-14T02:12:17;6.35;;;3.67;;
59476;SDS011;45713;49.766;6.592;2022-09-14T02:14:43;7.88;;;4.25;;
59476;SDS011;45713;49.766;6.592;2022-09-14T02:17:10;6.47;;;3.85;;
59476;SDS011;45713;49.766;6.592;2022-09-14T02:19:39;8.77;;;4.30;;
59476;SDS011;45713;49.766;6.592;2022-09-14T02:22:06;5.78;;;3.72;;
59476;SDS011;45713;49.766;6.592;2022-09-14T02:24:32;7.25;;;4.32;;
59476;SDS011;45713;49.766;6.592;2022-09-14T02:26:58;8.20;;;4.78;;
59476;SDS011;45713;49.766;6.592;2022-09-14T02:29:24;8.88;;;4.30;;
59476;SDS011;45713;49.766;6.592;2022-09-14T02:34:26;7.72;;;4.47;;
59476;SDS011;45713;49.766;6.592;2022-09-14T02:39:34;6.85;;;4.55;;
59476;SDS011;45713;49.766;6.592;2022-09-14T02:42:16;7.93;;;4.03;;
59476;SDS011;45713;49.766;6.592;2022-09-14T02:47:33;7.75;;;4.72;;
59476;SDS011;45713;49.766;6.592;2022-09-14T02:53:07;7.38;;;4.78;;
59476;SDS011;45713;49.766;6.592;2022-09-14T02:55:40;6.43;;;5.00;;
59476;SDS011;45713;49.766;6.592;2022-09-14T02:58:08;6.38;;;5.03;;
59476;SDS011;45713;49.766;6.592;2022-09-14T03:00:36;6.13;;;4.60;;
59476;SDS011;45713;49.766;6.592;2022-09-14T03:03:06;7.18;;;5.10;;
59476;SDS011;45713;49.766;6.592;2022-09-14T03:05:33;6.43;;;4.85;;
59476;SDS011;45713;49.766;6.592;2022-09-14T03:07:59;6.75;;;5.25;;
59476;SDS011;45713;49.766;6.592;2022-09-14T03:10:26;8.43;;;4.82;;
59476;SDS011;45713;49.766;6.592;2022-09-14T03:12:52;5.80;;;4.60;;
59476;SDS011;45713;49.766;6.592;2022-09-14T03:15:18;7.70;;;4.40;;
59476;SDS011;45713;49.766;6.592;2022-09-14T03:17:45;7.75;;;4.60;;
59476;SDS011;45713;49.766;6.592;2022-09-14T03:20:12;6.45;;;4.45;;
59476;SDS011;45713;49.766;6.592;2022-09-14T03:22:38;6.65;;;4.32;;
59476;SDS011;45713;49.766;6.592;2022-09-14T03:25:04;6.90;;;5.00;;
59476;SDS011;45713;49.766;6.592;2022-09-14T03:27:31;7.60;;;4.85;;
59476;SDS011;45713;49.766;6.592;2022-09-14T03:29:57;7.45;;;4.60;;
59476;SDS011;45713;49.766;6.592;2022-09-14T03:32:23;7.75;;;4.35;;
59476;SDS011;45713;49.766;6.592;2022-09-14T03:34:49;5.53;;;4.43;;
59476;SDS011;45713;49.766;6.592;2022-09-14T03:37:15;5.20;;;4.15;;
59476;SDS011;45713;49.766;6.592;2022-09-14T03:39:41;7.63;;;4.18;;
59476;SDS011;45713;49.766;6.592;2022-09-14T03:42:07;5.32;;;4.05;;
59476;SDS011;45713;49.766;6.592;2022-09-14T03:44:33;8.27;;;4.40;;
59476;SDS011;45713;49.766;6.592;2022-09-14T03:46:59;5.93;;;4.43;;
59476;SDS011;45713;49.766;6.592;2022-09-14T03:49:25;9.20;;;5.63;;
59476;SDS011;45713;49.766;6.592;2022-09-14T03:51:51;8.95;;;5.70;;
59476;SDS011;45713;49.766;6.592;2022-09-14T03:54:17;8.32;;;5.47;;
59476;SDS011;45713;49.766;6.592;2022-09-14T03:56:43;7.50;;;5.40;;
59476;SDS011;45713;49.766;6.592;2022-09-14T03:59:09;9.60;;;5.85;;
59476;SDS011;45713;49.766;6.592;2022-09-14T04:01:35;8.23;;;6.13;;
59476;SDS011;45713;49.766;6.592;2022-09-14T04:04:02;8.52;;;6.10;;
59476;SDS011;45713;49.766;6.592;2022-09-14T04:06:28;7.97;;;5.82;;
59476;SDS011;45713;49.766;6.592;2022-09-14T04:08:56;7.20;;;5.45;;
59476;SDS011;45713;49.766;6.592;2022-09-14T04:11:24;8.15;;;4.90;;
59476;SDS011;45713;49.766;6.592;2022-09-14T04:13:50;9.88;;;5.72;;
59476;SDS011;45713;49.766;6.592;2022-09-14T04:16:18;7.68;;;5.88;;
59476;SDS011;45713;49.766;6.592;2022-09-14T04:18:47;10.32;;;6.45;;
59476;SDS011;45713;49.766;6.592;2022-09-14T04:21:14;8.30;;;6.38;;
59476;SDS011;45713;49.766;6.592;2022-09-14T04:23:40;9.90;;;6.18;;
59476;SDS011;45713;49.766;6.592;2022-09-14T04:26:14;9.23;;;5.97;;
59476;SDS011;45713;49.766;6.592;2022-09-14T04:28:40;8.73;;;5.85;;
59476;SDS011;45713;49.766;6.592;2022-09-14T04:31:07;10.40;;;6.13;;
59476;SDS011;45713;49.766;6.592;2022-09-14T04:33:34;9.20;;;5.93;;
59476;SDS011;45713;49.766;6.592;2022-09-14T04:36:01;10.00;;;6.10;;
59476;SDS011;45713;49.766;6.592;2022-09-14T04:38:28;8.20;;;6.25;;
59476;SDS011;45713;49.766;6.592;2022-09-14T04:40:54;9.02;;;5.70;;
59476;SDS011;45713;49.766;6.592;2022-09-14T04:43:20;8.68;;;5.97;;
59476;SDS011;45713;49.766;6.592;2022-09-14T04:45:46;7.97;;;5.68;;
59476;SDS011;45713;49.766;6.592;2022-09-14T04:48:12;8.32;;;5.88;;
59476;SDS011;45713;49.766;6.592;2022-09-14T04:50:38;6.75;;;5.20;;
59476;SDS011;45713;49.766;6.592;2022-09-14T04:53:04;8.35;;;5.47;;
59476;SDS011;45713;49.766;6.592;2022-09-14T04:55:30;6.00;;;4.70;;
59476;SDS011;45713;49.766;6.592;2022-09-14T04:57:56;5.10;;;3.70;;
59476;SDS011;45713;49.766;6.592;2022-09-14T05:00:22;5.00;;;4.07;;
59476;SDS011;45713;49.766;6.592;2022-09-14T05:02:48;7.10;;;4.28;;
59476;SDS011;45713;49.766;6.592;2022-09-14T05:05:14;4.72;;;3.58;;
59476;SDS011;45713;49.766;6.592;2022-09-14T05:07:40;5.57;;;3.80;;
59476;SDS011;45713;49.766;6.592;2022-09-14T05:10:06;5.57;;;3.78;;
59476;SDS011;45713;49.766;6.592;2022-09-14T05:12:32;5.45;;;4.35;;
59476;SDS011;45713;49.766;6.592;2022-09-14T05:14:58;9.85;;;5.78;;
59476;SDS011;45713;49.766;6.592;2022-09-14T05:17:24;23.20;;;7.80;;
59476;SDS011;45713;49.766;6.592;2022-09-14T05:19:50;10.98;;;7.15;;
59476;SDS011;45713;49.766;6.592;2022-09-14T05:22:16;11.75;;;6.60;;
59476;SDS011;45713;49.766;6.592;2022-09-14T05:24:43;11.48;;;7.10;;
59476;SDS011;45713;49.766;6.592;2022-09-14T05:27:09;9.38;;;6.70;;
59476;SDS011;45713;49.766;6.592;2022-09-14T05:29:35;12.35;;;6.93;;
59476;SDS011;45713;49.766;6.592;2022-09-14T05:32:03;16.10;;;7.72;;
59476;SDS011;45713;49.766;6.592;2022-09-14T05:34:29;14.95;;;8.45;;
59476;SDS011;45713;49.766;6.592;2022-09-14T05:36:55;11.82;;;8.40;;
59476;SDS011;45713;49.766;6.592;2022-09-14T05:39:21;12.68;;;7.40;;
59476;SDS011;45713;49.766;6.592;2022-09-14T05:41:49;11.48;;;6.93;;
59476;SDS011;45713;49.766;6.592;2022-09-14T05:44:15;13.27;;;7.97;;
59476;SDS011;45713;49.766;6.592;2022-09-14T05:46:41;10.25;;;7.65;;
59476;SDS011;45713;49.766;6.592;2022-09-14T05:49:07;10.85;;;6.93;;
59476;SDS011;45713;49.766;6.592;2022-09-14T05:51:33;10.07;;;7.07;;
59476;SDS011;45713;49.766;6.592;2022-09-14T05:53:59;11.57;;;7.35;;
59476;SDS011;45713;49.766;6.592;2022-09-14T05:56:28;7.85;;;6.18;;
59476;SDS011;45713;49.766;6.592;2022-09-14T05:58:55;10.65;;;6.55;;
59476;SDS011;45713;49.766;6.592;2022-09-14T06:01:24;14.32;;;6.70;;
59476;SDS011;45713;49.766;6.592;2022-09-14T06:03:53;14.20;;;7.32;;
59476;SDS011;45713;49.766;6.592;2022-09-14T06:06:20;15.85;;;7.78;;
59476;SDS011;45713;49.766;6.592;2022-09-14T06:08:47;11.90;;;8.18;;
59476;SDS011;45713;49.766;6.592;2022-09-14T06:11:18;11.32;;;7.90;;
59476;SDS011;45713;49.766;6.592;2022-09-14T06:13:45;10.02;;;7.45;;
59476;SDS011;45713;49.766;6.592;2022-09-14T06:16:12;10.90;;;7.40;;
59476;SDS011;45713;49.766;6.592;2022-09-14T06:18:39;9.27;;;7.30;;
59476;SDS011;45713;49.766;6.592;2022-09-14T06:21:06;9.88;;;7.35;;
59476;SDS011;45713;49.766;6.592;2022-09-14T06:23:32;10.43;;;7.07;;
59476;SDS011;45713;49.766;6.592;2022-09-14T06:26:01;10.40;;;7.40;;
59476;SDS011;45713;49.766;6.592;2022-09-14T06:28:28;10.77;;;7.93;;
59476;SDS011;45713;49.766;6.592;2022-09-14T06:30:55;11.50;;;8.25;;
59476;SDS011;45713;49.766;6.592;2022-09-14T06:33:21;11.10;;;7.40;;
59476;SDS011;45713;49.766;6.592;2022-09-14T06:35:54;11.40;;;7.85;;
59476;SDS011;45713;49.766;6.592;2022-09-14T06:38:21;11.10;;;8.13;;
59476;SDS011;45713;49.766;6.592;2022-09-14T06:41:06;11.25;;;7.93;;
59476;SDS011;45713;49.766;6.592;2022-09-14T06:43:34;11.88;;;8.23;;
59476;SDS011;45713;49.766;6.592;2022-09-14T06:48:26;9.80;;;7.63;;
59476;SDS011;45713;49.766;6.592;2022-09-14T06:50:53;9.80;;;8.02;;
59476;SDS011;45713;49.766;6.592;2022-09-14T06:53:19;8.85;;;6.78;;
59476;SDS011;45713;49.766;6.592;2022-09-14T06:55:45;9.80;;;8.40;;
59476;SDS011;45713;49.766;6.592;2022-09-14T06:58:11;11.18;;;8.70;;
59476;SDS011;45713;49.766;6.592;2022-09-14T07:00:38;12.05;;;8.52;;
59476;SDS011;45713;49.766;6.592;2022-09-14T07:03:04;10.55;;;8.00;;
59476;SDS011;45713;49.766;6.592;2022-09-14T07:05:30;11.70;;;8.32;;
59476;SDS011;45713;49.766;6.592;2022-09-14T07:07:56;11.48;;;9.00;;
59476;SDS011;45713;49.766;6.592;2022-09-14T07:10:23;13.13;;;8.20;;
59476;SDS011;45713;49.766;6.592;2022-09-14T07:12:52;12.35;;;8.70;;
59476;SDS011;45713;49.766;6.592;2022-09-14T07:15:19;13.75;;;8.80;;
59476;SDS011;45713;49.766;6.592;2022-09-14T07:17:45;11.63;;;9.32;;
59476;SDS011;45713;49.766;6.592;2022-09-14T07:20:11;13.23;;;9.05;;
59476;SDS011;45713;49.766;6.592;2022-09-14T07:22:39;14.32;;;10.30;;
59476;SDS011;45713;49.766;6.592;2022-09-14T07:25:05;14.63;;;9.80;;
59476;SDS011;45713;49.766;6.592;2022-09-14T07:27:31;14.20;;;10.13;;
59476;SDS011;45713;49.766;6.592;2022-09-14T07:29:58;14.25;;;10.75;;
59476;SDS011;45713;49.766;6.592;2022-09-14T07:32:24;14.63;;;10.10;;
59476;SDS011;45713;49.766;6.592;2022-09-14T07:34:50;13.65;;;10.32;;
59476;SDS011;45713;49.766;6.592;2022-09-14T07:37:16;13.73;;;10.40;;
59476;SDS011;45713;49.766;6.592;2022-09-14T07:39:42;14.85;;;10.40;;
59476;SDS011;45713;49.766;6.592;2022-09-14T07:42:08;14.70;;;10.75;;
59476;SDS011;45713;49.766;6.592;2022-09-14T07:44:34;16.25;;;11.15;;
59476;SDS011;45713;49.766;6.592;2022-09-14T07:46:59;15.75;;;11.52;;
59476;SDS011;45713;49.766;6.592;2022-09-14T07:49:25;16.92;;;11.63;;
59476;SDS011;45713;49.766;6.592;2022-09-14T07:51:51;17.33;;;12.18;;
59476;SDS011;45713;49.766;6.592;2022-09-14T07:54:18;17.83;;;11.93;;
59476;SDS011;45713;49.766;6.592;2022-09-14T07:56:44;19.40;;;12.77;;
59476;SDS011;45713;49.766;6.592;2022-09-14T07:59:13;17.27;;;12.20;;
59476;SDS011;45713;49.766;6.592;2022-09-14T08:01:39;22.35;;;13.38;;
59476;SDS011;45713;49.766;6.592;2022-09-14T08:04:05;25.80;;;14.10;;
59476;SDS011;45713;49.766;6.592;2022-09-14T08:06:33;25.83;;;13.85;;
59476;SDS011;45713;49.766;6.592;2022-09-14T08:09:03;22.17;;;13.55;;
59476;SDS011;45713;49.766;6.592;2022-09-14T08:11:30;26.23;;;13.85;;
59476;SDS011;45713;49.766;6.592;2022-09-14T08:13:59;23.00;;;14.02;;
59476;SDS011;45713;49.766;6.592;2022-09-14T08:16:26;23.92;;;13.13;;
59476;SDS011;45713;49.766;6.592;2022-09-14T08:18:56;27.67;;;14.45;;
59476;SDS011;45713;49.766;6.592;2022-09-14T08:21:23;30.10;;;14.30;;
59476;SDS011;45713;49.766;6.592;2022-09-14T08:23:49;26.95;;;15.82;;
59476;SDS011;45713;49.766;6.592;2022-09-14T08:26:17;26.02;;;14.60;;
59476;SDS011;45713;49.766;6.592;2022-09-14T08:28:43;26.88;;;15.52;;
59476;SDS011;45713;49.766;6.592;2022-09-14T08:31:13;29.42;;;16.58;;
59476;SDS011;45713;49.766;6.592;2022-09-14T08:33:41;29.40;;;16.45;;
59476;SDS011;45713;49.766;6.592;2022-09-14T08:36:08;32.78;;;16.95;;
59476;SDS011;45713;49.766;6.592;2022-09-14T08:38:34;26.08;;;14.82;;
59476;SDS011;45713;49.766;6.592;2022-09-14T08:41:11;25.98;;;15.57;;
59476;SDS011;45713;49.766;6.592;2022-09-14T08:43:41;29.10;;;16.33;;
59476;SDS011;45713;49.766;6.592;2022-09-14T08:46:13;28.70;;;15.65;;
59476;SDS011;45713;49.766;6.592;2022-09-14T08:48:42;30.60;;;16.42;;
59476;SDS011;45713;49.766;6.592;2022-09-14T08:51:09;25.63;;;16.20;;
59476;SDS011;45713;49.766;6.592;2022-09-14T08:53:37;27.13;;;16.25;;
59476;SDS011;45713;49.766;6.592;2022-09-14T08:56:10;25.63;;;14.93;;
59476;SDS011;45713;49.766;6.592;2022-09-14T09:06:21;26.30;;;15.63;;
59476;SDS011;45713;49.766;6.592;2022-09-14T09:11:17;24.38;;;16.25;;
59476;SDS011;45713;49.766;6.592;2022-09-14T09:13:44;22.50;;;15.65;;
59476;SDS011;45713;49.766;6.592;2022-09-14T09:16:11;26.48;;;15.45;;
59476;SDS011;45713;49.766;6.592;2022-09-14T09:18:56;24.30;;;16.48;;
59476;SDS011;45713;49.766;6.592;2022-09-14T09:21:26;23.10;;;14.80;;
59476;SDS011;45713;49.766;6.592;2022-09-14T09:23:58;25.73;;;15.15;;
59476;SDS011;45713;49.766;6.592;2022-09-14T09:26:29;23.90;;;16.05;;
59476;SDS011;45713;49.766;6.592;2022-09-14T09:28:57;26.17;;;15.77;;
59476;SDS011;45713;49.766;6.592;2022-09-14T09:31:28;24.45;;;16.02;;
59476;SDS011;45713;49.766;6.592;2022-09-14T09:33:55;25.17;;;15.75;;
59476;SDS011;45713;49.766;6.592;2022-09-14T09:36:21;24.35;;;16.02;;
59476;SDS011;45713;49.766;6.592;2022-09-14T09:38:47;21.00;;;14.77;;
59476;SDS011;45713;49.766;6.592;2022-09-14T09:41:23;22.73;;;15.60;;
59476;SDS011;45713;49.766;6.592;2022-09-14T09:43:58;25.70;;;17.50;;
59476;SDS011;45713;49.766;6.592;2022-09-14T09:46:43;22.55;;;13.15;;
59476;SDS011;45713;49.766;6.592;2022-09-14T09:49:14;17.58;;;13.23;;
59476;SDS011;45713;49.766;6.592;2022-09-14T09:51:41;18.45;;;12.90;;
59476;SDS011;45713;49.766;6.592;2022-09-14T09:56:37;18.42;;;14.57;;
59476;SDS011;45713;49.766;6.592;2022-09-14T10:05:03;16.13;;;11.45;;
59476;SDS011;45713;49.766;6.592;2022-09-14T10:07:30;15.15;;;12.07;;
59476;SDS011;45713;49.766;6.592;2022-09-14T10:09:58;17.27;;;12.05;;
59476;SDS011;45713;49.766;6.592;2022-09-14T10:12:24;15.55;;;11.15;;
59476;SDS011;45713;49.766;6.592;2022-09-14T10:15:01;14.07;;;10.48;;
59476;SDS011;45713;49.766;6.592;2022-09-14T10:17:27;12.50;;;9.32;;
59476;SDS011;45713;49.766;6.592;2022-09-14T10:19:53;14.77;;;9.98;;
59476;SDS011;45713;49.766;6.592;2022-09-14T10:22:33;12.00;;;9.13;;
59476;SDS011;45713;49.766;6.592;2022-09-14T10:27:44;15.38;;;9.10;;
59476;SDS011;45713;49.766;6.592;2022-09-14T10:30:16;13.88;;;9.45;;
59476;SDS011;45713;49.766;6.592;2022-09-14T10:32:44;10.15;;;8.10;;
59476;SDS011;45713;49.766;6.592;2022-09-14T10:35:11;10.47;;;7.90;;
59476;SDS011;45713;49.766;6.592;2022-09-14T10:37:42;10.50;;;8.80;;
59476;SDS011;45713;49.766;6.592;2022-09-14T10:40:15;12.23;;;8.13;;
59476;SDS011;45713;49.766;6.592;2022-09-14T10:45:16;9.23;;;7.50;;
59476;SDS011;45713;49.766;6.592;2022-09-14T10:58:13;11.18;;;7.32;;
59476;SDS011;45713;49.766;6.592;2022-09-14T11:03:33;8.43;;;6.97;;
59476;SDS011;45713;49.766;6.592;2022-09-14T11:11:21;8.68;;;6.70;;
59476;SDS011;45713;49.766;6.592;2022-09-14T11:14:04;10.10;;;6.30;;
59476;SDS011;45713;49.766;6.592;2022-09-14T11:16:51;8.50;;;4.90;;
59476;SDS011;45713;49.766;6.592;2022-09-14T11:19:37;7.45;;;4.95;;
59476;SDS011;45713;49.766;6.592;2022-09-14T11:22:11;6.50;;;5.00;;
59476;SDS011;45713;49.766;6.592;2022-09-14T11:27:21;5.43;;;4.80;;
59476;SDS011;45713;49.766;6.592;2022-09-14T11:29:51;6.38;;;5.00;;
59476;SDS011;45713;49.766;6.592;2022-09-14T11:32:24;10.65;;;5.55;;
59476;SDS011;45713;49.766;6.592;2022-09-14T11:34:57;8.48;;;5.47;;
59476;SDS011;45713;49.766;6.592;2022-09-14T11:37:28;10.95;;;5.63;;
59476;SDS011;45713;49.766;6.592;2022-09-14T11:42:38;9.85;;;6.55;;
59476;SDS011;45713;49.766;6.592;2022-09-14T11:45:15;9.35;;;6.70;;
59476;SDS011;45713;49.766;6.592;2022-09-14T11:47:50;11.55;;;6.53;;
59476;SDS011;45713;49.766;6.592;2022-09-14T11:50:27;9.35;;;6.45;;
59476;SDS011;45713;49.766;6.592;2022-09-14T11:53:01;9.70;;;6.63;;
59476;SDS011;45713;49.766;6.592;2022-09-14T11:55:27;7.10;;;6.38;;
59476;SDS011;45713;49.766;6.592;2022-09-14T11:57:54;7.95;;;6.47;;
59476;SDS011;45713;49.766;6.592;2022-09-14T12:05:23;7.57;;;5.90;;
59476;SDS011;45713;49.766;6.592;2022-09-14T12:12:47;11.05;;;7.95;;
59476;SDS011;45713;49.766;6.592;2022-09-14T12:17:43;9.50;;;7.25;;
59476;SDS011;45713;49.766;6.592;2022-09-14T12:23:05;9.60;;;7.05;;
59476;SDS011;45713;49.766;6.592;2022-09-14T12:25:36;9.07;;;6.85;;
59476;SDS011;45713;49.766;6.592;2022-09-14T12:28:19;9.07;;;6.50;;
59476;SDS011;45713;49.766;6.592;2022-09-14T12:59:22;9.50;;;7.53;;
59476;SDS011;45713;49.766;6.592;2022-09-14T13:01:52;9.25;;;7.55;;
59476;SDS011;45713;49.766;6.592;2022-09-14T13:04:24;11.02;;;7.70;;
59476;SDS011;45713;49.766;6.592;2022-09-14T13:06:51;10.27;;;8.05;;
59476;SDS011;45713;49.766;6.592;2022-09-14T13:09:21;10.20;;;8.13;;
59476;SDS011;45713;49.766;6.592;2022-09-14T13:11:55;9.45;;;8.00;;
59476;SDS011;45713;49.766;6.592;2022-09-14T13:14:23;12.85;;;9.18;;
59476;SDS011;45713;49.766;6.592;2022-09-14T13:16:50;9.93;;;8.65;;
59476;SDS011;45713;49.766;6.592;2022-09-14T13:19:26;13.50;;;8.73;;
59476;SDS011;45713;49.766;6.592;2022-09-14T13:21:53;9.73;;;8.65;;
59476;SDS011;45713;49.766;6.592;2022-09-14T13:24:21;9.07;;;6.97;;
59476;SDS011;45713;49.766;6.592;2022-09-14T13:26:48;8.77;;;7.20;;
59476;SDS011;45713;49.766;6.592;2022-09-14T13:29:14;9.27;;;7.38;;
59476;SDS011;45713;49.766;6.592;2022-09-14T13:31:40;8.52;;;6.72;;
59476;SDS011;45713;49.766;6.592;2022-09-14T13:34:28;8.50;;;6.18;;
59476;SDS011;45713;49.766;6.592;2022-09-14T13:36:55;7.05;;;5.82;;
59476;SDS011;45713;49.766;6.592;2022-09-14T13:41:48;7.10;;;5.70;;
59476;SDS011;45713;49.766;6.592;2022-09-14T13:44:14;9.27;;;6.00;;
59476;SDS011;45713;49.766;6.592;2022-09-14T13:46:40;8.43;;;4.68;;
59476;SDS011;45713;49.766;6.592;2022-09-14T13:49:06;7.38;;;5.05;;
59476;SDS011;45713;49.766;6.592;2022-09-14T13:51:32;7.30;;;5.15;;
59476;SDS011;45713;49.766;6.592;2022-09-14T13:54:44;8.35;;;5.35;;
59476;SDS011;45713;49.766;6.592;2022-09-14T13:56:45;10.02;;;5.32;;
59476;SDS011;45713;49.766;6.592;2022-09-14T13:59:12;8.07;;;5.95;;
59476;SDS011;45713;49.766;6.592;2022-09-14T14:01:42;9.02;;;5.78;;
59476;SDS011;45713;49.766;6.592;2022-09-14T14:09:41;7.10;;;5.32;;
59476;SDS011;45713;49.766;6.592;2022-09-14T14:12:08;8.18;;;5.63;;
59476;SDS011;45713;49.766;6.592;2022-09-14T14:14:35;6.95;;;5.28;;
59476;SDS011;45713;49.766;6.592;2022-09-14T14:19:46;9.88;;;5.25;;
59476;SDS011;45713;49.766;6.592;2022-09-14T14:24:39;8.48;;;5.70;;
59476;SDS011;45713;49.766;6.592;2022-09-14T14:27:05;5.47;;;4.90;;
59476;SDS011;45713;49.766;6.592;2022-09-14T14:29:44;7.80;;;5.18;;
59476;SDS011;45713;49.766;6.592;2022-09-14T14:32:10;8.43;;;5.05;;
59476;SDS011;45713;49.766;6.592;2022-09-14T14:34:36;8.63;;;5.22;;
59476;SDS011;45713;49.766;6.592;2022-09-14T14:37:02;6.57;;;4.60;;
59476;SDS011;45713;49.766;6.592;2022-09-14T14:39:28;5.68;;;4.82;;
59476;SDS011;45713;49.766;6.592;2022-09-14T14:41:54;5.95;;;4.53;;
59476;SDS011;45713;49.766;6.592;2022-09-14T14:44:21;10.40;;;5.03;;
59476;SDS011;45713;49.766;6.592;2022-09-14T14:46:48;7.35;;;4.65;;
59476;SDS011;45713;49.766;6.592;2022-09-14T14:49:14;6.70;;;4.40;;
59476;SDS011;45713;49.766;6.592;2022-09-14T14:51:41;6.35;;;4.13;;
59476;SDS011;45713;49.766;6.592;2022-09-14T14:54:07;6.72;;;4.20;;
59476;SDS011;45713;49.766;6.592;2022-09-14T14:56:34;6.55;;;4.05;;
59476;SDS011;45713;49.766;6.592;2022-09-14T14:59:00;6.05;;;3.83;;
59476;SDS011;45713;49.766;6.592;2022-09-14T15:01:26;6.05;;;4.22;;
59476;SDS011;45713;49.766;6.592;2022-09-14T15:03:52;6.72;;;4.20;;
59476;SDS011;45713;49.766;6.592;2022-09-14T15:06:21;6.47;;;4.22;;
59476;SDS011;45713;49.766;6.592;2022-09-14T15:08:54;7.32;;;4.53;;
59476;SDS011;45713;49.766;6.592;2022-09-14T15:11:21;6.28;;;4.78;;
59476;SDS011;45713;49.766;6.592;2022-09-14T15:13:47;6.65;;;4.30;;
59476;SDS011;45713;49.766;6.592;2022-09-14T15:16:14;6.25;;;4.72;;
59476;SDS011;45713;49.766;6.592;2022-09-14T15:18:40;4.80;;;3.30;;
59476;SDS011;45713;49.766;6.592;2022-09-14T15:21:06;5.30;;;3.60;;
59476;SDS011;45713;49.766;6.592;2022-09-14T15:23:32;5.55;;;4.18;;
59476;SDS011;45713;49.766;6.592;2022-09-14T15:25:59;4.53;;;2.50;;
59476;SDS011;45713;49.766;6.592;2022-09-14T15:28:25;7.90;;;5.38;;
59476;SDS011;45713;49.766;6.592;2022-09-14T15:30:51;7.13;;;4.28;;
59476;SDS011;45713;49.766;6.592;2022-09-14T15:33:17;4.00;;;2.90;;
59476;SDS011;45713;49.766;6.592;2022-09-14T15:35:44;4.72;;;3.40;;
59476;SDS011;45713;49.766;6.592;2022-09-14T15:38:10;7.25;;;3.65;;
59476;SDS011;45713;49.766;6.592;2022-09-14T15:40:36;4.50;;;3.15;;
59476;SDS011;45713;49.766;6.592;2022-09-14T15:43:02;4.22;;;3.40;;
59476;SDS011;45713;49.766;6.592;2022-09-14T15:45:28;6.75;;;4.22;;
59476;SDS011;45713;49.766;6.592;2022-09-14T15:47:54;6.00;;;3.28;;
59476;SDS011;45713;49.766;6.592;2022-09-14T15:50:20;3.53;;;2.53;;
59476;SDS011;45713;49.766;6.592;2022-09-14T15:52:46;3.90;;;2.60;;
59476;SDS011;45713;49.766;6.592;2022-09-14T15:55:12;4.47;;;2.60;;
59476;SDS011;45713;49.766;6.592;2022-09-14T15:57:38;4.95;;;3.10;;
59476;SDS011;45713;49.766;6.592;2022-09-14T16:00:05;7.10;;;3.10;;
59476;SDS011;45713;49.766;6.592;2022-09-14T16:02:32;4.32;;;2.60;;
59476;SDS011;45713;49.766;6.592;2022-09-14T16:04:58;5.88;;;3.03;;
59476;SDS011;45713;49.766;6.592;2022-09-14T16:07:24;4.53;;;2.75;;
59476;SDS011;45713;49.766;6.592;2022-09-14T16:09:51;5.32;;;3.92;;
59476;SDS011;45713;49.766;6.592;2022-09-14T16:12:17;5.45;;;2.95;;
59476;SDS011;45713;49.766;6.592;2022-09-14T16:14:43;6.35;;;3.80;;
59476;SDS011;45713;49.766;6.592;2022-09-14T16:17:09;5.13;;;3.20;;
59476;SDS011;45713;49.766;6.592;2022-09-14T16:19:35;5.20;;;3.30;;
59476;SDS011;45713;49.766;6.592;2022-09-14T16:22:02;4.00;;;2.47;;
59476;SDS011;45713;49.766;6.592;2022-09-14T16:24:28;5.32;;;2.30;;
59476;SDS011;45713;49.766;6.592;2022-09-14T16:26:55;4.95;;;2.80;;
59476;SDS011;45713;49.766;6.592;2022-09-14T16:29:22;3.65;;;2.58;;
59476;SDS011;45713;49.766;6.592;2022-09-14T16:31:48;3.53;;;2.30;;
59476;SDS011;45713;49.766;6.592;2022-09-14T16:36:41;4.35;;;2.63;;
59476;SDS011;45713;49.766;6.592;2022-09-14T16:39:09;4.70;;;2.60;;
59476;SDS011;45713;49.766;6.592;2022-09-14T16:41:35;6.25;;;2.63;;
59476;SDS011;45713;49.766;6.592;2022-09-14T16:44:03;4.72;;;2.50;;
59476;SDS011;45713;49.766;6.592;2022-09-14T16:46:30;4.18;;;2.50;;
59476;SDS011;45713;49.766;6.592;2022-09-14T16:48:56;3.70;;;2.50;;
59476;SDS011;45713;49.766;6.592;2022-09-14T16:51:23;4.15;;;2.58;;
59476;SDS011;45713;49.766;6.592;2022-09-14T16:53:50;4.28;;;2.50;;
59476;SDS011;45713;49.766;6.592;2022-09-14T16:56:17;4.20;;;2.47;;
59476;SDS011;45713;49.766;6.592;2022-09-14T16:58:44;4.57;;;2.40;;
59476;SDS011;45713;49.766;6.592;2022-09-14T17:01:12;3.45;;;2.42;;